createdAt,value
2018-04-02T00:01:53.027Z,100817.89
2018-04-02T00:04:56.469Z,100821.18
2018-04-02T00:07:59.834Z,100813.37
2018-04-02T00:11:03.181Z,100810.78
2018-04-02T00:17:14.679Z,100814.22
2018-04-02T00:20:18.035Z,100810.34
2018-04-02T00:23:21.402Z,100811.00
2018-04-02T00:26:24.780Z,100813.74
2018-04-02T00:29:28.181Z,100820.05
2018-04-02T00:32:31.528Z,100813.30
2018-04-02T00:35:35.658Z,100813.55
2018-04-02T00:38:39.050Z,100813.41
2018-04-02T00:41:42.518Z,100811.37
2018-04-02T00:44:46.012Z,100811.55
2018-04-02T00:47:49.370Z,100813.85
2018-04-02T00:50:52.712Z,100821.58
2018-04-02T00:53:56.084Z,100811.44
2018-04-02T00:56:59.440Z,100819.20
2018-04-02T01:00:03.560Z,100811.77
2018-04-02T01:03:06.940Z,100817.75
2018-04-02T01:06:10.361Z,100809.87
2018-04-02T01:09:13.681Z,100811.84
2018-04-02T01:12:17.023Z,100810.49
2018-04-02T01:15:21.176Z,100814.57
2018-04-02T01:18:25.290Z,100809.47
2018-04-02T01:21:28.626Z,100810.16
2018-04-02T01:24:32.098Z,100806.66
2018-04-02T01:27:35.458Z,100809.39
2018-04-02T01:30:40.325Z,100809.65
2018-04-02T01:33:43.678Z,100811.69
2018-04-02T01:36:47.070Z,100800.49
2018-04-02T01:39:50.422Z,100796.55
2018-04-02T01:42:53.795Z,100803.23
2018-04-02T01:45:57.144Z,100796.27
2018-04-02T01:49:00.489Z,100798.64
2018-04-02T01:52:03.834Z,100798.97
2018-04-02T01:55:07.205Z,100791.30
2018-04-02T01:58:11.329Z,100796.92
2018-04-02T02:01:14.699Z,100790.94
2018-04-02T02:04:18.854Z,100787.84
2018-04-02T02:07:22.341Z,100788.68
2018-04-02T02:10:26.464Z,100791.67
2018-04-02T02:13:29.846Z,100793.93
2018-04-02T02:16:33.978Z,100792.36
2018-04-02T02:19:37.342Z,100792.83
2018-04-02T02:22:41.509Z,100785.45
2018-04-02T02:25:45.588Z,100780.77
2018-04-02T02:28:48.960Z,100776.97
2018-04-02T02:31:52.300Z,100775.53
2018-04-02T02:34:56.457Z,100777.02
2018-04-02T02:37:59.792Z,100776.74
2018-04-02T02:41:03.151Z,100772.78
2018-04-02T02:44:06.493Z,100772.50
2018-04-02T02:47:09.874Z,100770.24
2018-04-02T02:50:13.227Z,100771.83
2018-04-02T02:53:16.613Z,100761.68
2018-04-02T02:56:19.943Z,100764.50
2018-04-02T02:59:23.297Z,100764.77
2018-04-02T03:02:27.487Z,100760.72
2018-04-02T03:05:30.842Z,100764.25
2018-04-02T03:08:34.320Z,100761.16
2018-04-02T03:11:38.433Z,100768.92
2018-04-02T03:14:42.558Z,100764.66
2018-04-02T03:17:46.669Z,100768.05
2018-04-02T03:20:50.931Z,100771.22
2018-04-02T03:23:54.392Z,100766.98
2018-04-02T03:26:58.521Z,100766.91
2018-04-02T03:30:01.871Z,100773.23
2018-04-02T03:33:05.211Z,100766.84
2018-04-02T03:36:09.386Z,100768.83
2018-04-02T03:39:12.725Z,100768.97
2018-04-02T03:42:16.902Z,100767.62
2018-04-02T03:45:20.238Z,100770.34
2018-04-02T03:48:24.359Z,100771.20
2018-04-02T03:51:28.562Z,100764.11
2018-04-02T03:54:32.678Z,100767.27
2018-04-02T03:57:36.026Z,100780.23
2018-04-02T04:00:39.366Z,100769.17
2018-04-02T04:03:44.209Z,100772.17
2018-04-02T04:06:48.332Z,100774.66
2018-04-02T04:09:52.449Z,100768.77
2018-04-02T04:12:56.556Z,100770.59
2018-04-02T04:15:59.910Z,100765.58
2018-04-02T04:19:03.252Z,100772.41
2018-04-02T04:22:06.643Z,100767.97
2018-04-02T04:25:10.777Z,100763.22
2018-04-02T04:28:14.944Z,100766.69
2018-04-02T04:31:18.294Z,100763.47
2018-04-02T04:34:22.405Z,100772.32
2018-04-02T04:37:26.530Z,100775.19
2018-04-02T04:40:30.698Z,100769.67
2018-04-02T04:43:34.036Z,100775.12
2018-04-02T04:46:38.149Z,100769.77
2018-04-02T04:49:41.528Z,100766.07
2018-04-02T04:52:44.872Z,100763.01
2018-04-02T04:55:48.224Z,100761.97
2018-04-02T04:58:51.577Z,100764.66
2018-04-02T05:01:54.925Z,100764.83
2018-04-02T05:04:58.344Z,100766.23
2018-04-02T05:08:01.694Z,100771.14
2018-04-02T05:11:05.043Z,100766.80
2018-04-02T05:14:09.165Z,100766.55
2018-04-02T05:17:13.273Z,100764.16
2018-04-02T05:20:16.627Z,100766.38
2018-04-02T05:23:20.009Z,100768.02
2018-04-02T05:26:23.404Z,100768.95
2018-04-02T05:29:26.752Z,100773.42
2018-04-02T05:32:30.233Z,100772.34
2018-04-02T05:35:33.797Z,100767.94
2018-04-02T05:38:37.166Z,100776.92
2018-04-02T05:41:40.545Z,100776.67
2018-04-02T05:44:43.919Z,100776.99
2018-04-02T05:47:47.281Z,100774.31
2018-04-02T05:50:51.596Z,100768.23
2018-04-02T05:53:55.903Z,100768.04
2018-04-02T05:56:59.292Z,100769.41
2018-04-02T06:00:03.682Z,100766.16
2018-04-02T06:03:07.031Z,100761.27
2018-04-02T06:06:10.470Z,100764.49
2018-04-02T06:09:13.839Z,100766.77
2018-04-02T06:12:17.944Z,100764.67
2018-04-02T06:15:21.449Z,100762.39
2018-04-02T06:18:24.909Z,100758.08
2018-04-02T06:21:28.259Z,100754.98
2018-04-02T06:24:32.504Z,100754.70
2018-04-02T06:27:35.829Z,100753.84
2018-04-02T06:30:39.201Z,100754.81
2018-04-02T06:33:42.547Z,100765.05
2018-04-02T06:36:46.690Z,100758.38
2018-04-02T06:39:50.816Z,100750.51
2018-04-02T06:42:54.978Z,100757.00
2018-04-02T06:45:58.346Z,100755.10
2018-04-02T06:49:01.736Z,100756.30
2018-04-02T06:52:05.856Z,100759.27
2018-04-02T06:55:09.344Z,100758.80
2018-04-02T06:58:12.732Z,100759.04
2018-04-02T07:01:16.081Z,100756.99
2018-04-02T07:04:19.421Z,100754.39
2018-04-02T07:07:23.535Z,100756.94
2018-04-02T07:10:27.680Z,100759.31
2018-04-02T07:13:31.841Z,100753.52
2018-04-02T07:16:35.190Z,100754.31
2018-04-02T07:19:39.405Z,100753.83
2018-04-02T07:22:43.518Z,100754.27
2018-04-02T07:25:46.865Z,100753.27
2018-04-02T07:28:50.219Z,100749.58
2018-04-02T07:31:54.337Z,100744.97
2018-04-02T07:34:58.456Z,100744.64
2018-04-02T07:38:02.584Z,100743.09
2018-04-02T07:41:06.694Z,100750.42
2018-04-02T07:44:10.905Z,100744.02
2018-04-02T07:47:15.025Z,100739.38
2018-04-02T07:50:19.185Z,100740.66
2018-04-02T07:53:22.538Z,100741.83
2018-04-02T07:56:26.737Z,100740.93
2018-04-02T07:59:30.856Z,100737.84
2018-04-02T08:02:34.969Z,100741.56
2018-04-02T08:05:40.745Z,100746.22
2018-04-02T08:08:44.881Z,100755.27
2018-04-02T08:11:48.257Z,100758.22
2018-04-02T08:14:52.402Z,100761.72
2018-04-02T08:17:55.758Z,100756.30
2018-04-02T08:20:59.399Z,100757.67
2018-04-02T08:24:02.769Z,100751.71
2018-04-02T08:27:06.128Z,100758.47
2018-04-02T08:30:09.491Z,100753.95
2018-04-02T08:33:13.685Z,100751.77
2018-04-02T08:36:17.038Z,100753.73
2018-04-02T08:39:20.393Z,100758.95
2018-04-02T08:42:24.573Z,100761.11
2018-04-02T08:45:27.936Z,100764.08
2018-04-02T08:48:31.340Z,100757.12
2018-04-02T08:51:34.699Z,100763.26
2018-04-02T08:54:38.831Z,100766.21
2018-04-02T08:57:43.008Z,100760.79
2018-04-02T09:00:46.381Z,100751.11
2018-04-02T09:03:49.762Z,100753.89
2018-04-02T09:06:53.113Z,100753.92
2018-04-02T09:09:57.238Z,100759.29
2018-04-02T09:13:02.112Z,100761.89
2018-04-02T09:16:05.686Z,100768.07
2018-04-02T09:19:09.044Z,100759.27
2018-04-02T09:22:12.395Z,100767.48
2018-04-02T09:25:16.508Z,100763.47
2018-04-02T09:28:20.616Z,100763.47
2018-04-02T09:31:23.965Z,100756.28
2018-04-02T09:34:27.353Z,100748.31
2018-04-02T09:37:30.732Z,100753.53
2018-04-02T09:40:34.920Z,100754.83
2018-04-02T09:43:38.293Z,100751.59
2018-04-02T09:46:41.767Z,100751.72
2018-04-02T09:49:45.145Z,100752.34
2018-04-02T09:52:49.266Z,100747.50
2018-04-02T09:55:53.539Z,100743.80
2018-04-02T09:58:56.902Z,100741.33
2018-04-02T10:02:00.240Z,100738.03
2018-04-02T10:05:03.754Z,100741.44
2018-04-02T10:08:07.025Z,100735.62
2018-04-02T10:11:10.379Z,100736.27
2018-04-02T10:14:14.513Z,100733.83
2018-04-02T10:17:17.873Z,100727.97
2018-04-02T10:20:21.267Z,100723.67
2018-04-02T10:23:24.641Z,100723.86
2018-04-02T10:26:28.015Z,100719.41
2018-04-02T10:29:31.365Z,100711.28
2018-04-02T10:32:34.717Z,100710.04
2018-04-02T10:35:38.265Z,100712.50
2018-04-02T10:38:41.621Z,100712.14
2018-04-02T10:41:45.007Z,100709.17
2018-04-02T10:44:48.381Z,100701.34
2018-04-02T10:47:52.543Z,100694.56
2018-04-02T10:50:55.891Z,100697.47
2018-04-02T10:54:00.044Z,100695.38
2018-04-02T10:57:03.417Z,100694.69
2018-04-02T11:00:07.569Z,100692.23
2018-04-02T11:03:10.928Z,100692.48
2018-04-02T11:06:15.093Z,100697.80
2018-04-02T11:09:18.419Z,100693.42
2018-04-02T11:12:21.852Z,100699.66
2018-04-02T11:15:25.983Z,100687.83
2018-04-02T11:18:29.349Z,100677.20
2018-04-02T11:21:32.729Z,100684.09
2018-04-02T11:24:36.089Z,100681.34
2018-04-02T11:27:39.683Z,100683.56
2018-04-02T11:30:43.025Z,100692.62
2018-04-02T11:33:46.384Z,100685.65
2018-04-02T11:36:49.848Z,100674.77
2018-04-02T11:39:53.231Z,100678.59
2018-04-02T11:42:56.603Z,100680.66
2018-04-02T11:45:59.968Z,100684.03
2018-04-02T11:49:04.117Z,100679.85
2018-04-02T11:52:07.473Z,100680.98
2018-04-02T11:55:10.889Z,100674.55
2018-04-02T11:58:15.112Z,100679.39
2018-04-02T12:01:18.483Z,100667.83
2018-04-02T12:04:21.875Z,100657.00
2018-04-02T12:07:25.310Z,100657.34
2018-04-02T12:10:28.670Z,100656.80
2018-04-02T12:13:32.041Z,100655.88
2018-04-02T12:16:35.389Z,100649.62
2018-04-02T12:19:39.559Z,100651.51
2018-04-02T12:22:42.911Z,100653.65
2018-04-02T12:25:47.035Z,100650.13
2018-04-02T12:28:51.282Z,100647.31
2018-04-02T12:31:54.678Z,100643.30
2018-04-02T12:34:58.034Z,100646.40
2018-04-02T12:38:01.374Z,100650.14
2018-04-02T12:41:04.787Z,100646.80
2018-04-02T12:44:08.140Z,100643.17
2018-04-02T12:47:12.248Z,100647.14
2018-04-02T12:50:15.609Z,100646.34
2018-04-02T12:53:18.971Z,100638.80
2018-04-02T12:56:22.365Z,100639.52
2018-04-02T12:59:26.545Z,100632.39
2018-04-02T13:02:29.910Z,100622.06
2018-04-02T13:05:33.513Z,100628.67
2018-04-02T13:08:36.866Z,100628.59
2018-04-02T13:11:40.989Z,100623.16
2018-04-02T13:14:45.129Z,100622.89
2018-04-02T13:17:48.489Z,100629.11
2018-04-02T13:20:51.854Z,100629.62
2018-04-02T13:23:55.233Z,100618.68
2018-04-02T13:26:58.597Z,100620.62
2018-04-02T13:30:01.963Z,100613.93
2018-04-02T13:33:05.304Z,100609.38
2018-04-02T13:36:09.469Z,100603.33
2018-04-02T13:39:12.858Z,100607.86
2018-04-02T13:42:16.222Z,100604.13
2018-04-02T13:45:20.378Z,100601.52
2018-04-02T13:48:23.778Z,100599.39
2018-04-02T13:51:27.150Z,100597.88
2018-04-02T13:54:30.579Z,100595.55
2018-04-02T13:57:33.933Z,100584.65
2018-04-02T14:00:38.097Z,100580.64
2018-04-02T14:03:41.445Z,100579.67
2018-04-02T14:06:45.562Z,100582.20
2018-04-02T14:09:49.702Z,100578.43
2018-04-02T14:12:53.059Z,100575.86
2018-04-02T14:15:56.443Z,100566.33
2018-04-02T14:18:59.902Z,100564.51
2018-04-02T14:22:03.256Z,100548.33
2018-04-02T14:25:06.623Z,100555.29
2018-04-02T14:28:09.993Z,100560.09
2018-04-02T14:31:13.370Z,100556.13
2018-04-02T14:34:17.608Z,100562.25
2018-04-02T14:37:21.743Z,100555.34
2018-04-02T14:40:25.137Z,100550.84
2018-04-02T14:43:28.511Z,100547.52
2018-04-02T14:46:32.657Z,100547.23
2018-04-02T14:49:36.022Z,100539.50
2018-04-02T14:52:40.197Z,100538.83
2018-04-02T14:55:43.554Z,100539.72
2018-04-02T14:58:47.678Z,100539.23
2018-04-02T15:01:51.046Z,100529.20
2018-04-02T15:04:54.487Z,100523.70
2018-04-02T15:07:57.863Z,100526.14
2018-04-02T15:11:01.985Z,100520.98
2018-04-02T15:14:06.140Z,100517.16
2018-04-02T15:17:09.526Z,100508.47
2018-04-02T15:20:12.901Z,100500.60
2018-04-02T15:23:17.039Z,100495.64
2018-04-02T15:26:20.400Z,100495.47
2018-04-02T15:29:23.749Z,100492.44
2018-04-02T15:32:27.153Z,100488.30
2018-04-02T15:35:30.531Z,100481.25
2018-04-02T15:38:33.878Z,100482.98
2018-04-02T15:41:37.228Z,100473.75
2018-04-02T15:44:40.591Z,100472.54
2018-04-02T15:47:44.092Z,100472.47
2018-04-02T15:50:47.563Z,100472.26
2018-04-02T15:53:50.979Z,100467.85
2018-04-02T15:56:54.402Z,100458.54
2018-04-02T15:59:57.814Z,100462.53
2018-04-02T16:03:02.148Z,100465.03
2018-04-02T16:06:05.538Z,100457.39
2018-04-02T16:09:08.929Z,100455.05
2018-04-02T16:12:13.058Z,100449.56
2018-04-02T16:15:17.325Z,100446.84
2018-04-02T16:18:20.889Z,100446.87
2018-04-02T16:21:24.294Z,100442.03
2018-04-02T16:24:27.692Z,100436.69
2018-04-02T16:27:31.062Z,100441.08
2018-04-02T16:30:35.178Z,100435.09
2018-04-02T16:33:38.869Z,100431.31
2018-04-02T16:39:43.375Z,100417.78
2018-04-02T16:42:46.843Z,100418.91
2018-04-02T16:45:50.968Z,100405.83
2018-04-02T16:48:54.396Z,100410.15
2018-04-02T16:51:57.769Z,100407.64
2018-04-02T16:55:01.189Z,100401.77
2018-04-02T16:58:04.568Z,100400.27
2018-04-02T17:01:08.015Z,100398.05
2018-04-02T17:04:11.392Z,100388.61
2018-04-02T17:07:14.735Z,100385.84
2018-04-02T17:10:18.098Z,100377.59
2018-04-02T17:13:21.476Z,100373.70
2018-04-02T17:16:24.876Z,100378.33
2018-04-02T17:19:28.257Z,100372.37
2018-04-02T17:22:32.386Z,100368.63
2018-04-02T17:25:35.820Z,100370.77
2018-04-02T17:28:39.186Z,100371.87
2018-04-02T17:31:42.624Z,100364.25
2018-04-02T17:34:46.028Z,100364.59
2018-04-02T17:37:49.400Z,100360.61
2018-04-02T17:40:52.783Z,100360.41
2018-04-02T17:43:56.314Z,100360.34
2018-04-02T17:46:59.761Z,100358.50
2018-04-02T17:50:03.300Z,100347.35
2018-04-02T17:53:06.692Z,100352.41
2018-04-02T17:56:10.221Z,100353.08
2018-04-02T17:59:13.632Z,100352.13
2018-04-02T18:02:16.978Z,100338.65
2018-04-02T18:05:21.127Z,100337.81
2018-04-02T18:08:24.522Z,100342.89
2018-04-02T18:11:27.907Z,100345.77
2018-04-02T18:14:31.276Z,100353.11
2018-04-02T18:17:34.667Z,100349.41
2018-04-02T18:20:38.039Z,100347.12
2018-04-02T18:23:41.420Z,100348.79
2018-04-02T18:26:44.802Z,100360.33
2018-04-02T18:29:48.190Z,100347.53
2018-04-02T18:32:52.446Z,100351.47
2018-04-02T18:35:55.855Z,100349.61
2018-04-02T18:38:59.252Z,100355.34
2018-04-02T18:42:02.648Z,100351.55
2018-04-02T18:45:06.180Z,100351.41
2018-04-02T18:48:09.533Z,100345.70
2018-04-02T18:51:12.934Z,100340.14
2018-04-02T18:54:16.286Z,100329.73
2018-04-02T18:57:19.686Z,100335.00
2018-04-02T19:00:24.576Z,100312.95
2018-04-02T19:03:27.982Z,100313.08
2018-04-02T19:06:31.348Z,100304.67
2018-04-02T19:09:35.533Z,100308.83
2018-04-02T19:12:39.704Z,100306.86
2018-04-02T19:15:43.070Z,100311.94
2018-04-02T19:18:47.293Z,100317.05
2018-04-02T19:21:51.446Z,100308.42
2018-04-02T19:24:54.851Z,100295.06
2018-04-02T19:27:58.248Z,100288.28
2018-04-02T19:31:01.736Z,100287.94
2018-04-02T19:34:05.130Z,100282.78
2018-04-02T19:37:08.494Z,100272.25
2018-04-02T19:40:12.649Z,100275.07
2018-04-02T19:43:16.080Z,100278.81
2018-04-02T19:46:19.476Z,100278.65
2018-04-02T19:49:22.890Z,100273.06
2018-04-02T19:52:26.256Z,100270.87
2018-04-02T19:55:29.793Z,100272.45
2018-04-02T19:58:33.155Z,100266.50
2018-04-02T20:01:36.541Z,100261.26
2018-04-02T20:04:39.945Z,100260.66
2018-04-02T20:07:43.323Z,100263.03
2018-04-02T20:10:47.484Z,100255.67
2018-04-02T20:13:50.913Z,100256.95
2018-04-02T20:16:54.305Z,100256.89
2018-04-02T20:19:57.740Z,100254.77
2018-04-02T20:23:01.916Z,100247.65
2018-04-02T20:26:05.301Z,100244.18
2018-04-02T20:29:08.688Z,100238.20
2018-04-02T20:32:12.097Z,100236.31
2018-04-02T20:35:15.494Z,100231.50
2018-04-02T20:38:18.843Z,100224.64
2018-04-02T20:41:22.206Z,100229.59
2018-04-02T20:44:25.638Z,100221.47
2018-04-02T20:47:29.917Z,100213.55
2018-04-02T20:50:33.330Z,100218.30
2018-04-02T20:53:36.713Z,100216.73
2018-04-02T20:56:40.219Z,100209.27
2018-04-02T20:59:43.587Z,100196.73
2018-04-02T21:02:47.021Z,100193.49
2018-04-02T21:05:50.531Z,100197.70
2018-04-02T21:08:53.906Z,100192.98
2018-04-02T21:12:00.164Z,100188.00
2018-04-02T21:15:03.569Z,100179.93
2018-04-02T21:18:06.930Z,100179.08
2018-04-02T21:21:10.349Z,100178.13
2018-04-02T21:24:14.494Z,100175.34
2018-04-02T21:27:17.963Z,100172.09
2018-04-02T21:30:22.236Z,100163.52
2018-04-02T21:33:25.617Z,100169.94
2018-04-02T21:36:28.990Z,100154.91
2018-04-02T21:39:33.135Z,100154.22
2018-04-02T21:42:36.511Z,100149.21
2018-04-02T21:45:41.298Z,100145.05
2018-04-02T21:48:44.667Z,100142.05
2018-04-02T21:51:48.038Z,100131.15
2018-04-02T21:54:52.425Z,100128.60
2018-04-02T21:57:55.870Z,100126.42
2018-04-02T22:00:59.234Z,100127.92
2018-04-02T22:04:02.581Z,100131.55
2018-04-02T22:07:06.023Z,100129.91
2018-04-02T22:10:09.409Z,100125.25
2018-04-02T22:13:12.769Z,100127.47
2018-04-02T22:16:16.128Z,100128.02
2018-04-02T22:19:19.485Z,100128.95
2018-04-02T22:22:22.864Z,100126.88
2018-04-02T22:25:26.221Z,100115.30
2018-04-02T22:28:29.590Z,100119.11
2018-04-02T22:31:32.959Z,100120.38
2018-04-02T22:34:37.083Z,100109.33
2018-04-02T22:37:40.446Z,100100.19
2018-04-02T22:40:43.816Z,100093.30
2018-04-02T22:43:47.177Z,100081.17
2018-04-02T22:46:50.537Z,100073.27
2018-04-02T22:49:53.869Z,100067.89
2018-04-02T22:52:57.243Z,100054.86
2018-04-02T22:56:00.590Z,100055.44
2018-04-02T22:59:03.948Z,100049.47
2018-04-02T23:02:08.099Z,100035.95
2018-04-02T23:05:11.444Z,100037.87
2018-04-02T23:08:16.537Z,100035.75
2018-04-02T23:11:19.971Z,100031.88
2018-04-02T23:14:23.356Z,100027.95
2018-04-02T23:17:26.926Z,100022.04
2018-04-02T23:20:30.273Z,100009.55
2018-04-02T23:23:33.706Z,100012.95
2018-04-02T23:26:37.838Z,100007.75
2018-04-02T23:29:41.957Z,100001.74
2018-04-02T23:32:45.309Z,99988.95
2018-04-02T23:35:49.437Z,99986.84
2018-04-02T23:38:53.553Z,99972.91
2018-04-02T23:41:56.897Z,99960.30
2018-04-02T23:45:00.243Z,99936.00
2018-04-02T23:48:03.598Z,99927.59
2018-04-02T23:51:06.944Z,99944.22
2018-04-02T23:54:12.150Z,99941.41
2018-04-02T23:57:15.513Z,99934.36
